createdAt,value
2022-11-15T00:00:58.140Z,119.70
2022-11-15T00:03:27.649Z,110.60
2022-11-15T00:05:54.499Z,105.70
2022-11-15T00:08:21.633Z,106.90
2022-11-15T00:11:02.288Z,115.80
2022-11-15T00:13:29.335Z,100.70
2022-11-15T00:16:01.042Z,78.80
2022-11-15T00:20:54.733Z,91.00
2022-11-15T00:23:21.272Z,95.10
2022-11-15T00:25:47.733Z,93.40
2022-11-15T00:28:14.249Z,86.50
2022-11-15T00:30:40.681Z,96.70
2022-11-15T00:33:07.947Z,85.90
2022-11-15T00:35:35.721Z,89.90
2022-11-15T00:38:02.994Z,84.40
2022-11-15T00:40:30.143Z,92.40
2022-11-15T00:42:56.937Z,83.20
2022-11-15T00:45:23.732Z,92.00
2022-11-15T00:47:50.306Z,82.10
2022-11-15T00:50:17.608Z,94.50
2022-11-15T00:52:44.992Z,87.90
2022-11-15T00:55:16.711Z,100.20
2022-11-15T00:57:43.500Z,100.10
2022-11-15T01:00:11.434Z,89.60
2022-11-15T01:02:38.427Z,91.00
2022-11-15T01:05:05.835Z,91.30
2022-11-15T01:07:32.732Z,95.40
2022-11-15T01:09:59.327Z,86.90
2022-11-15T01:12:25.817Z,81.20
2022-11-15T01:14:52.251Z,69.30
2022-11-15T01:17:18.790Z,82.50
2022-11-15T01:19:45.248Z,85.30
2022-11-15T01:22:11.656Z,79.50
2022-11-15T01:24:38.210Z,80.30
2022-11-15T01:27:04.755Z,86.40
2022-11-15T01:29:31.294Z,72.60
2022-11-15T01:31:57.833Z,78.90
2022-11-15T01:34:24.274Z,80.40
2022-11-15T01:36:51.211Z,73.50
2022-11-15T01:39:17.939Z,71.40
2022-11-15T01:41:44.920Z,78.50
2022-11-15T01:44:42.594Z,61.30
2022-11-15T01:47:26.791Z,68.90
2022-11-15T01:50:01.816Z,69.40
2022-11-15T01:52:32.045Z,67.80
2022-11-15T01:55:08.901Z,64.10
2022-11-15T01:57:36.115Z,64.80
2022-11-15T02:00:05.793Z,71.20
2022-11-15T02:02:34.051Z,71.30
2022-11-15T02:05:01.007Z,66.30
2022-11-15T02:07:27.626Z,64.70
2022-11-15T02:09:55.508Z,64.70
2022-11-15T02:12:23.136Z,62.50
2022-11-15T02:14:53.813Z,62.70
2022-11-15T02:18:02.377Z,65.60
2022-11-15T02:20:42.602Z,65.90
2022-11-15T02:23:56.757Z,62.60
2022-11-15T02:26:47.670Z,63.80
2022-11-15T02:29:36.400Z,63.60
2022-11-15T02:32:24.235Z,63.40
2022-11-15T02:35:17.804Z,67.80
2022-11-15T02:37:55.450Z,64.90
2022-11-15T02:40:43.698Z,64.20
2022-11-15T02:43:16.799Z,60.40
2022-11-15T02:45:52.096Z,66.40
2022-11-15T02:48:19.503Z,64.10
2022-11-15T02:50:46.967Z,70.70
2022-11-15T02:53:15.549Z,61.30
2022-11-15T02:55:46.905Z,65.50
2022-11-15T02:58:32.122Z,76.50
2022-11-15T03:01:05.524Z,61.40
2022-11-15T03:03:38.361Z,65.50
2022-11-15T03:06:24.584Z,65.60
2022-11-15T03:09:09.286Z,68.10
2022-11-15T03:11:41.824Z,58.10
2022-11-15T03:14:28.931Z,51.30
2022-11-15T03:17:16.976Z,56.50
2022-11-15T03:19:51.093Z,58.40
2022-11-15T03:22:21.325Z,59.80
2022-11-15T03:24:53.696Z,60.40
2022-11-15T03:27:26.545Z,58.60
2022-11-15T03:30:01.730Z,60.30
2022-11-15T03:32:32.478Z,59.10
2022-11-15T03:35:20.420Z,53.80
2022-11-15T03:38:02.182Z,57.20
2022-11-15T03:40:36.900Z,60.10
2022-11-15T03:43:37.791Z,57.30
2022-11-15T03:46:12.152Z,61.00
2022-11-15T03:48:44.671Z,59.60
2022-11-15T03:51:11.908Z,53.90
2022-11-15T03:53:38.415Z,59.60
2022-11-15T03:56:05.052Z,54.90
2022-11-15T03:58:31.687Z,59.20
2022-11-15T04:00:58.213Z,48.90
2022-11-15T04:03:24.777Z,53.40
2022-11-15T04:05:51.414Z,54.20
2022-11-15T04:08:18.159Z,54.50
2022-11-15T04:10:44.743Z,49.50
2022-11-15T04:13:11.213Z,52.50
2022-11-15T04:15:37.663Z,50.00
2022-11-15T04:18:04.152Z,52.10
2022-11-15T04:20:32.288Z,50.30
2022-11-15T04:23:00.783Z,51.70
2022-11-15T04:25:32.004Z,50.00
2022-11-15T04:27:58.892Z,47.00
2022-11-15T04:30:25.381Z,48.90
2022-11-15T04:32:51.855Z,45.40
2022-11-15T04:35:18.350Z,47.90
2022-11-15T04:37:49.139Z,50.70
2022-11-15T04:40:16.380Z,47.10
2022-11-15T04:42:43.443Z,44.70
2022-11-15T04:45:11.028Z,48.60
2022-11-15T04:47:37.548Z,47.10
2022-11-15T04:50:04.663Z,47.60
2022-11-15T04:52:31.115Z,48.50
2022-11-15T04:54:57.553Z,53.60
2022-11-15T04:57:24.049Z,53.30
2022-11-15T04:59:50.584Z,53.50
2022-11-15T05:02:17.104Z,56.90
2022-11-15T05:04:43.843Z,50.80
2022-11-15T05:07:10.389Z,50.10
2022-11-15T05:09:36.971Z,53.40
2022-11-15T05:12:03.573Z,52.50
2022-11-15T05:14:30.120Z,51.80
2022-11-15T05:16:56.651Z,51.60
2022-11-15T05:19:23.191Z,49.30
2022-11-15T05:21:49.727Z,49.00
2022-11-15T05:24:16.152Z,49.80
2022-11-15T05:26:42.639Z,49.40
2022-11-15T05:29:10.684Z,46.20
2022-11-15T05:31:41.687Z,52.30
2022-11-15T05:34:08.380Z,36.40
2022-11-15T05:36:42.968Z,49.30
2022-11-15T05:39:09.852Z,46.40
2022-11-15T05:41:48.782Z,51.10
2022-11-15T05:44:18.883Z,51.60
2022-11-15T05:46:46.364Z,54.80
2022-11-15T05:49:17.021Z,52.90
2022-11-15T05:51:45.579Z,41.10
2022-11-15T05:54:12.532Z,51.00
2022-11-15T05:56:39.897Z,48.40
2022-11-15T05:59:08.361Z,54.90
2022-11-15T06:01:35.030Z,50.90
2022-11-15T06:04:01.573Z,52.80
2022-11-15T06:06:29.548Z,51.30
2022-11-15T06:08:56.199Z,55.50
2022-11-15T06:11:22.837Z,55.00
2022-11-15T06:13:49.583Z,53.00
2022-11-15T06:16:16.048Z,52.90
2022-11-15T06:18:42.488Z,52.20
2022-11-15T06:21:08.999Z,53.40
2022-11-15T06:23:36.446Z,50.70
2022-11-15T06:26:03.925Z,52.90
2022-11-15T06:28:34.324Z,50.80
2022-11-15T06:31:09.008Z,48.00
2022-11-15T06:33:35.958Z,45.30
2022-11-15T06:36:11.904Z,46.60
2022-11-15T06:38:41.246Z,45.80
2022-11-15T06:41:10.019Z,39.90
2022-11-15T06:43:37.376Z,39.80
2022-11-15T06:46:05.138Z,39.00
2022-11-15T06:48:33.211Z,38.60
2022-11-15T06:51:01.098Z,38.60
2022-11-15T06:53:29.143Z,35.00
2022-11-15T06:56:00.310Z,35.60
2022-11-15T06:58:26.854Z,38.40
2022-11-15T07:00:53.668Z,35.80
2022-11-15T07:03:20.140Z,34.30
2022-11-15T07:05:55.079Z,33.80
2022-11-15T07:08:23.360Z,35.20
2022-11-15T07:10:50.310Z,36.10
2022-11-15T07:13:17.158Z,34.10
2022-11-15T07:15:43.694Z,35.20
2022-11-15T07:18:10.351Z,34.10
2022-11-15T07:20:36.974Z,32.30
2022-11-15T07:23:05.230Z,32.50
2022-11-15T07:25:32.330Z,32.10
2022-11-15T07:28:00.535Z,33.00
2022-11-15T07:30:28.362Z,33.80
2022-11-15T07:33:00.139Z,33.10
2022-11-15T07:35:28.098Z,32.90
2022-11-15T07:37:59.684Z,31.80
2022-11-15T07:40:31.479Z,30.50
2022-11-15T07:43:02.413Z,31.00
2022-11-15T07:45:29.313Z,33.20
2022-11-15T07:47:56.678Z,34.10
2022-11-15T07:50:25.058Z,33.20
2022-11-15T07:52:59.988Z,31.60
2022-11-15T07:55:28.686Z,32.90
2022-11-15T07:58:01.637Z,29.50
2022-11-15T08:00:28.117Z,33.70
2022-11-15T08:03:06.540Z,33.40
2022-11-15T08:05:33.381Z,29.60
2022-11-15T08:08:00.223Z,27.90
2022-11-15T08:10:28.239Z,26.50
2022-11-15T08:13:11.790Z,28.30
2022-11-15T08:15:38.946Z,27.20
2022-11-15T08:18:16.840Z,26.10
2022-11-15T08:20:44.259Z,25.20
2022-11-15T08:23:12.867Z,28.80
2022-11-15T08:25:39.899Z,28.60
2022-11-15T08:28:08.805Z,26.60
2022-11-15T08:30:38.240Z,25.60
2022-11-15T08:33:04.746Z,25.30
2022-11-15T08:35:31.592Z,24.40
2022-11-15T08:37:58.121Z,23.80
2022-11-15T08:40:24.991Z,24.30
2022-11-15T08:42:51.747Z,22.80
2022-11-15T08:45:18.355Z,23.40
2022-11-15T08:47:47.413Z,21.30
2022-11-15T08:50:17.793Z,20.40
2022-11-15T08:52:44.349Z,20.40
2022-11-15T08:55:11.096Z,21.10
2022-11-15T08:57:37.945Z,19.70
2022-11-15T09:00:05.194Z,20.40
2022-11-15T09:02:31.667Z,19.90
2022-11-15T09:04:58.186Z,21.60
2022-11-15T09:07:24.919Z,21.90
2022-11-15T09:09:51.578Z,20.30
2022-11-15T09:12:18.219Z,19.90
2022-11-15T09:14:44.870Z,19.80
2022-11-15T09:17:11.432Z,20.00
2022-11-15T09:19:37.948Z,19.10
2022-11-15T09:22:07.869Z,19.50
2022-11-15T09:24:35.141Z,17.90
2022-11-15T09:27:01.660Z,17.60
2022-11-15T09:29:28.126Z,17.20
2022-11-15T09:31:54.748Z,17.20
2022-11-15T09:34:21.286Z,16.90
2022-11-15T09:36:48.132Z,16.80
2022-11-15T09:39:14.861Z,15.50
2022-11-15T09:41:59.583Z,15.20
2022-11-15T09:44:56.711Z,15.00
2022-11-15T09:47:35.572Z,14.70
2022-11-15T09:50:09.041Z,13.40
2022-11-15T09:52:37.964Z,13.20
2022-11-15T09:55:06.209Z,12.90
2022-11-15T09:57:42.488Z,13.60
2022-11-15T10:03:45.095Z,12.30
2022-11-15T10:06:25.748Z,13.00
2022-11-15T10:09:00.539Z,12.60
2022-11-15T10:11:37.354Z,12.30
2022-11-15T10:14:36.284Z,12.90
2022-11-15T10:17:28.015Z,12.20
2022-11-15T10:20:06.027Z,13.40
2022-11-15T10:22:54.086Z,13.30
2022-11-15T10:25:20.677Z,13.80
2022-11-15T10:28:02.122Z,16.20
2022-11-15T10:30:39.028Z,14.40
2022-11-15T10:33:18.432Z,16.20
2022-11-15T10:35:44.918Z,16.30
2022-11-15T10:38:12.859Z,17.70
2022-11-15T10:40:41.790Z,17.30
2022-11-15T10:43:11.148Z,17.20
2022-11-15T10:45:39.024Z,15.00
2022-11-15T10:48:14.678Z,17.40
2022-11-15T10:50:43.549Z,18.10
2022-11-15T10:53:46.931Z,19.20
2022-11-15T10:56:15.787Z,18.00
2022-11-15T10:58:52.621Z,17.50
2022-11-15T11:01:23.696Z,15.50
2022-11-15T11:04:04.848Z,13.50
2022-11-15T11:06:46.730Z,16.30
2022-11-15T11:09:36.790Z,15.80
2022-11-15T11:12:06.735Z,16.70
2022-11-15T11:14:38.629Z,16.60
2022-11-15T11:17:18.604Z,16.70
2022-11-15T11:19:48.146Z,15.90
2022-11-15T11:22:41.516Z,15.20
2022-11-15T11:25:36.651Z,14.40
2022-11-15T11:28:32.733Z,13.90
2022-11-15T11:31:26.438Z,13.30
2022-11-15T11:34:05.679Z,12.30
2022-11-15T11:36:35.080Z,13.00
2022-11-15T11:39:18.210Z,12.90
2022-11-15T11:41:56.556Z,11.80
2022-11-15T11:44:32.178Z,11.90
2022-11-15T11:47:07.829Z,11.60
2022-11-15T11:49:42.440Z,12.10
2022-11-15T11:52:11.679Z,11.90
2022-11-15T11:54:59.305Z,11.50
2022-11-15T11:57:41.096Z,10.80
2022-11-15T12:00:21.619Z,10.50
2022-11-15T12:03:01.761Z,10.80
2022-11-15T12:05:31.745Z,11.40
2022-11-15T12:08:05.665Z,11.30
2022-11-15T12:10:34.469Z,12.90
2022-11-15T12:13:14.375Z,12.70
2022-11-15T12:15:49.062Z,10.80
2022-11-15T12:18:17.564Z,10.80
2022-11-15T12:20:56.467Z,9.90
2022-11-15T12:23:36.312Z,9.90
2022-11-15T12:26:16.983Z,10.50
2022-11-15T12:29:06.475Z,21.30
2022-11-15T12:31:41.603Z,17.40
2022-11-15T12:34:17.035Z,11.90
2022-11-15T12:36:48.032Z,11.60
2022-11-15T12:41:44.063Z,12.00
2022-11-15T12:44:33.427Z,10.10
2022-11-15T12:47:05.125Z,10.90
2022-11-15T12:49:31.532Z,10.70
2022-11-15T12:51:58.062Z,10.40
2022-11-15T12:54:24.623Z,10.30
2022-11-15T12:57:03.546Z,11.10
2022-11-15T13:00:14.829Z,10.20
2022-11-15T13:02:45.185Z,10.50
2022-11-15T13:05:14.670Z,11.40
2022-11-15T13:07:41.265Z,11.30
2022-11-15T13:10:11.121Z,10.30
2022-11-15T13:12:37.639Z,10.40
2022-11-15T13:15:13.234Z,15.80
2022-11-15T13:17:44.676Z,14.50
2022-11-15T13:20:14.394Z,10.30
2022-11-15T13:22:48.648Z,11.90
2022-11-15T13:25:44.668Z,12.20
2022-11-15T13:28:17.134Z,12.10
2022-11-15T13:30:53.870Z,11.10
2022-11-15T13:33:25.879Z,10.50
2022-11-15T13:35:58.826Z,11.00
2022-11-15T13:38:25.228Z,12.70
2022-11-15T13:40:51.876Z,10.50
2022-11-15T13:43:28.500Z,9.30
2022-11-15T13:46:34.033Z,9.10
2022-11-15T13:49:06.256Z,9.50
2022-11-15T13:51:53.073Z,9.10
2022-11-15T13:54:34.510Z,10.30
2022-11-15T13:59:34.362Z,9.40
2022-11-15T14:02:13.433Z,9.50
2022-11-15T14:04:49.176Z,9.80
2022-11-15T14:07:21.350Z,12.00
2022-11-15T14:09:48.671Z,11.80
2022-11-15T14:12:51.315Z,13.00
2022-11-15T14:15:32.954Z,22.00
2022-11-15T14:18:00.012Z,28.40
2022-11-15T14:20:34.092Z,26.60
2022-11-15T14:23:06.151Z,20.30
2022-11-15T14:25:35.114Z,17.70
2022-11-15T14:28:23.089Z,17.20
2022-11-15T14:30:50.744Z,16.70
2022-11-15T14:33:30.938Z,14.20
2022-11-15T14:35:59.952Z,16.00
2022-11-15T14:38:27.181Z,15.60
2022-11-15T14:40:55.179Z,18.80
2022-11-15T14:43:21.901Z,26.80
2022-11-15T14:45:48.570Z,28.50
2022-11-15T14:48:15.283Z,27.50
2022-11-15T14:50:41.987Z,28.40
2022-11-15T14:53:13.377Z,27.00
2022-11-15T14:55:39.941Z,25.90
2022-11-15T14:58:07.599Z,26.50
2022-11-15T15:00:35.844Z,30.40
2022-11-15T15:03:03.128Z,31.20
2022-11-15T15:05:35.603Z,34.10
2022-11-15T15:08:03.231Z,36.30
2022-11-15T15:10:42.237Z,39.90
2022-11-15T15:13:24.205Z,42.50
2022-11-15T15:15:52.290Z,125.40
2022-11-15T15:18:20.755Z,75.80
2022-11-15T15:20:55.399Z,41.70
2022-11-15T15:23:22.032Z,63.90
2022-11-15T15:25:48.995Z,91.90
2022-11-15T15:28:16.151Z,84.50
2022-11-15T15:30:42.692Z,77.00
2022-11-15T15:33:09.130Z,58.10
2022-11-15T15:35:36.393Z,73.70
2022-11-15T15:38:03.957Z,50.60
2022-11-15T15:40:33.403Z,50.20
2022-11-15T15:43:00.511Z,46.60
2022-11-15T15:45:27.970Z,59.00
2022-11-15T15:47:54.619Z,62.80
2022-11-15T15:50:22.694Z,49.50
2022-11-15T15:52:50.379Z,79.70
2022-11-15T15:55:17.106Z,81.80
2022-11-15T15:57:43.578Z,127.70
2022-11-15T16:00:10.803Z,122.50
2022-11-15T16:02:40.429Z,103.70
2022-11-15T16:05:08.438Z,59.60
2022-11-15T16:07:35.799Z,53.90
2022-11-15T16:10:03.985Z,36.70
2022-11-15T16:12:35.577Z,36.60
2022-11-15T16:15:03.613Z,34.80
2022-11-15T16:17:34.562Z,35.20
2022-11-15T16:20:01.462Z,35.30
2022-11-15T16:22:27.907Z,45.30
2022-11-15T16:24:54.344Z,49.40
2022-11-15T16:27:22.605Z,42.60
2022-11-15T16:29:49.865Z,55.30
2022-11-15T16:32:16.949Z,56.00
2022-11-15T16:34:48.542Z,41.70
2022-11-15T16:37:24.636Z,48.00
2022-11-15T16:39:51.585Z,88.80
2022-11-15T16:42:18.229Z,68.20
2022-11-15T16:44:44.790Z,55.20
2022-11-15T16:47:20.636Z,40.10
2022-11-15T16:49:47.172Z,99.10
2022-11-15T16:52:17.528Z,67.00
2022-11-15T16:54:46.794Z,70.60
2022-11-15T16:57:13.253Z,47.90
2022-11-15T16:59:39.797Z,74.50
2022-11-15T17:02:12.604Z,62.90
2022-11-15T17:04:39.121Z,61.70
2022-11-15T17:07:05.623Z,60.00
2022-11-15T17:09:32.199Z,61.10
2022-11-15T17:11:58.736Z,59.90
2022-11-15T17:14:25.146Z,52.30
2022-11-15T17:16:51.611Z,55.00
2022-11-15T17:19:20.728Z,53.10
2022-11-15T17:21:48.432Z,47.80
2022-11-15T17:24:15.336Z,49.50
2022-11-15T17:26:41.788Z,47.90
2022-11-15T17:29:08.962Z,52.50
2022-11-15T17:31:36.507Z,62.70
2022-11-15T17:34:04.773Z,58.00
2022-11-15T17:36:31.569Z,53.60
2022-11-15T17:38:59.810Z,55.20
2022-11-15T17:41:28.393Z,55.90
2022-11-15T17:43:59.034Z,52.00
2022-11-15T17:46:26.595Z,54.20
2022-11-15T17:48:53.143Z,73.80
2022-11-15T17:51:19.689Z,73.70
2022-11-15T17:53:47.548Z,76.40
2022-11-15T17:56:16.589Z,88.90
2022-11-15T17:58:54.760Z,92.30
2022-11-15T18:01:28.651Z,79.60
2022-11-15T18:03:56.819Z,116.00
2022-11-15T18:06:24.828Z,85.20
2022-11-15T18:08:53.751Z,68.60
2022-11-15T18:11:23.970Z,62.50
2022-11-15T18:13:53.829Z,66.00
2022-11-15T18:16:22.713Z,58.90
2022-11-15T18:18:49.318Z,56.70
2022-11-15T18:21:18.759Z,56.90
2022-11-15T18:23:45.802Z,62.80
2022-11-15T18:26:14.547Z,68.70
2022-11-15T18:28:44.940Z,70.40
2022-11-15T18:31:26.024Z,71.00
2022-11-15T18:33:53.358Z,145.60
2022-11-15T18:36:22.852Z,115.40
2022-11-15T18:38:57.552Z,93.50
2022-11-15T18:41:25.060Z,92.00
2022-11-15T18:43:51.863Z,82.90
2022-11-15T18:46:21.062Z,92.50
2022-11-15T18:48:49.199Z,88.30
2022-11-15T18:51:18.546Z,73.70
2022-11-15T18:53:46.367Z,78.30
2022-11-15T18:56:18.543Z,77.10
2022-11-15T18:58:54.690Z,70.60
2022-11-15T19:01:23.663Z,72.00
2022-11-15T19:03:52.810Z,68.60
2022-11-15T19:06:22.076Z,68.70
2022-11-15T19:08:51.215Z,76.60
2022-11-15T19:11:20.617Z,73.60
2022-11-15T19:13:47.874Z,85.20
2022-11-15T19:16:16.166Z,82.90
2022-11-15T19:18:42.941Z,87.30
2022-11-15T19:21:14.871Z,85.10
2022-11-15T19:23:43.148Z,85.00
2022-11-15T19:26:12.305Z,97.40
2022-11-15T19:28:39.612Z,100.50
2022-11-15T19:31:08.609Z,105.20
2022-11-15T19:33:35.512Z,88.90
2022-11-15T19:36:04.077Z,94.60
2022-11-15T19:38:32.035Z,100.80
2022-11-15T19:41:02.598Z,96.70
2022-11-15T19:43:30.218Z,111.30
2022-11-15T19:46:02.318Z,87.80
2022-11-15T19:48:34.165Z,129.60
2022-11-15T19:51:10.016Z,92.10
2022-11-15T19:53:37.236Z,92.90
2022-11-15T19:56:05.761Z,101.20
2022-11-15T19:58:32.916Z,82.00
2022-11-15T20:01:26.779Z,85.60
2022-11-15T20:03:55.194Z,77.40
2022-11-15T20:06:24.311Z,80.80
2022-11-15T20:08:51.128Z,96.60
2022-11-15T20:11:18.390Z,80.90
2022-11-15T20:13:45.850Z,88.30
2022-11-15T20:16:16.839Z,72.40
2022-11-15T20:18:43.740Z,75.40
2022-11-15T20:21:10.795Z,88.20
2022-11-15T20:23:37.301Z,84.10
2022-11-15T20:26:03.878Z,121.00
2022-11-15T20:28:30.672Z,132.90
2022-11-15T20:31:00.397Z,91.70
2022-11-15T20:33:27.691Z,155.90
2022-11-15T20:35:54.647Z,112.50
2022-11-15T20:38:22.312Z,94.70
2022-11-15T20:40:50.245Z,80.00
2022-11-15T20:43:19.283Z,74.00
2022-11-15T20:45:47.323Z,74.60
2022-11-15T20:48:15.337Z,91.00
2022-11-15T20:50:44.175Z,74.30
2022-11-15T20:53:14.762Z,80.90
2022-11-15T20:55:43.039Z,78.50
2022-11-15T20:58:11.025Z,75.20
2022-11-15T21:00:37.719Z,78.20
2022-11-15T21:03:05.631Z,120.90
2022-11-15T21:05:34.028Z,95.80
2022-11-15T21:08:00.753Z,92.40
2022-11-15T21:10:27.292Z,91.00
2022-11-15T21:12:53.828Z,96.20
2022-11-15T21:15:20.342Z,99.80
2022-11-15T21:17:47.447Z,107.30
2022-11-15T21:20:14.063Z,103.50
2022-11-15T21:22:40.606Z,103.60
2022-11-15T21:25:07.671Z,113.00
2022-11-15T21:27:34.134Z,96.10
2022-11-15T21:30:00.750Z,97.50
2022-11-15T21:32:27.287Z,88.80
2022-11-15T21:34:53.827Z,78.50
2022-11-15T21:37:20.295Z,82.40
2022-11-15T21:39:47.525Z,89.60
2022-11-15T21:42:14.062Z,97.30
2022-11-15T21:44:40.602Z,96.10
2022-11-15T21:47:07.060Z,97.50
2022-11-15T21:49:33.520Z,98.70
2022-11-15T21:51:59.986Z,110.10
2022-11-15T21:54:26.448Z,118.60
2022-11-15T21:56:52.996Z,110.90
2022-11-15T21:59:19.492Z,109.90
2022-11-15T22:01:46.229Z,97.80
2022-11-15T22:04:13.470Z,130.90
2022-11-15T22:06:40.424Z,132.00
2022-11-15T22:09:07.853Z,111.00
2022-11-15T22:11:34.805Z,112.10
2022-11-15T22:14:01.960Z,136.00
2022-11-15T22:16:28.599Z,115.30
2022-11-15T22:18:55.346Z,98.10
2022-11-15T22:21:22.193Z,99.80
2022-11-15T22:23:49.042Z,97.10
2022-11-15T22:26:23.201Z,81.40
2022-11-15T22:28:50.931Z,87.50
2022-11-15T22:31:17.648Z,84.20
2022-11-15T22:33:44.419Z,74.40
2022-11-15T22:36:12.506Z,74.90
2022-11-15T22:38:39.236Z,73.20
2022-11-15T22:41:05.939Z,72.90
2022-11-15T22:43:32.594Z,65.60
2022-11-15T22:46:00.627Z,64.50
2022-11-15T22:48:35.743Z,63.30
2022-11-15T22:51:03.829Z,54.20
2022-11-15T22:53:31.292Z,54.70
2022-11-15T22:56:00.278Z,53.10
2022-11-15T22:58:29.188Z,69.20
2022-11-15T23:00:59.031Z,57.80
2022-11-15T23:03:27.444Z,55.30
2022-11-15T23:05:54.691Z,50.90
2022-11-15T23:08:23.490Z,50.80
2022-11-15T23:10:50.313Z,51.30
2022-11-15T23:13:17.041Z,60.10
2022-11-15T23:15:45.905Z,61.20
2022-11-15T23:18:12.448Z,56.90
2022-11-15T23:20:43.490Z,55.30
2022-11-15T23:23:11.474Z,51.20
2022-11-15T23:25:38.113Z,46.20
2022-11-15T23:28:06.006Z,45.60
2022-11-15T23:30:36.931Z,44.80
2022-11-15T23:33:03.576Z,47.40
2022-11-15T23:35:30.040Z,46.10
2022-11-15T23:37:56.558Z,48.20
2022-11-15T23:40:23.062Z,49.60
2022-11-15T23:42:49.639Z,51.30
2022-11-15T23:45:16.719Z,53.30
2022-11-15T23:47:44.155Z,65.10
2022-11-15T23:50:11.103Z,64.10
2022-11-15T23:52:37.643Z,63.40
2022-11-15T23:55:04.795Z,58.80
2022-11-15T23:57:31.264Z,55.20
